Quick Links (Output Below):   Max & Min Temps   /   Climate Reports   /   Zone Forecasts
River Forecasts   /   Forestry Forecasts   /   Aviation Forecasts   /   Radars   /   Features

Terminal Aerodrome Forecast (Highfill)

Pick a Site:
Arkadelphia | El Dorado | Fayetteville | Fort Smith | Harrison | Highfill | Hot Springs | Jonesboro
Little Rock | Monticello | Mountain Home | Pine Bluff | Texarkana
 Forecast 

KXNA 010544Z 0106/0206 18011KT 6SM -RA OVC020
     FM010900 18010KT 4SM -RA OVC007
      TEMPO 0109/0112 2SM -RA BR OVC005
     FM011500 27013G21KT P6SM OVC012
     FM011800 29012G20KT P6SM OVC020
     FM012100 31016G23KT P6SM OVC035=


 Latest METARs (Observations) 
How to Decode METARs
08Z KXNA 010753Z AUTO 20006KT 5SM -RA BR FEW016 BKN022 OVC055 04/04
         A2980 RMK AO2 SLP092 P0015 T00440039
         
07Z KXNA 010653Z AUTO 18015KT 5SM -RA BR SCT023 BKN030 OVC044 04/03
         A2983 RMK AO2 SLP104 P0013 T00440033
         
06Z KXNA 010553Z AUTO 18010KT 6SM -RA BR BKN026 BKN045 OVC070 04/03
         A2986 RMK AO2 SLP114 P0005 60011 T00440028 10078 20044
         400890033 58024
         
05Z KXNA 010453Z AUTO 18009KT 10SM -RA OVC023 05/02 A2990 RMK AO2
         SLP125 P0003 T00500022
         
04Z KXNA 010353Z 17012KT 9SM -RA BKN024 OVC029 05/01 A2992 RMK AO2
         RAB0254E44B47 SLP133 P0001 T00500011
         
03Z KXNA 010253Z 16011KT 10SM FEW033 BKN040 OVC055 05/01 A2994 RMK AO2
         RAE53 SLP140 P0001 60002 T00500011 56026
         
02Z KXNA 010153Z 14012KT 10SM -RA FEW046 OVC075 06/01 A2996 RMK AO2
         SLP147 P0001 T00560006
         
01Z KXNA 010053Z 13014KT 10SM -RA SCT048 BKN065 OVC075 07/M01 A2999
         RMK AO2 RAB46 SLP157 P0000 T00721006
         
***** Today's Observations (Above) *****


23Z KXNA 312253Z 16011KT 10SM OVC090 08/M03 A3004 RMK AO2 SLP173
         T00831033
         
22Z KXNA 312153Z 16009KT 10SM OVC090 08/M03 A3006 RMK AO2 SLP180
         T00831033
         
***** Yesterday's Observations (Above) *****


Back to Main Page
http://www.srh.noaa.gov/lzk/qfcst.php

USA.gov is the U.S. government's official web portal to all federal, state and local government web resources and services.